Hartberg, Austria
Current Conditions -  °F | °C
As of 2:50 PM on Monday 24 Nov 2014 (Local Time) from LOWG Reporting Station
Broken Clouds Broken Clouds  
Wind Chill: 35°   Ceiling: 700
Heat Index: 39°   Visibility: 4mi
Dew Point: 37°   Wind: 6mph
Humidity: 93%   Direction: 140°SE
Pressure: 30.27"   Gusts: NA
Location:  46.98°N, 16.12°E
Report Text: LOWG 241350Z 14005KT 6000 SCT005 BKN007 04/03 Q1025 TEMPO BKN010
Loading
Personal Weather Stations






























Interactive Weather Map New forecast layout! Learn more

10-Day Weather Forecast

Advertisements
Track Severe Weather on mobile